Time;durP1;ratioP1;P1;durP2;ratioP2;P2;SDS_P1;SDS_P2;PMS_P1;PMS_P2;Temp;Humidity;BMP_temperature;BMP_pressure;BME280_temperature;BME280_humidity;BME280_pressure;Samples;Min_cycle;Max_cycle;Signal;HPM_P1;HPM_P2
2023/10/16 00:00:29;;;;;;;0.10;0.10;;;;;;;10.08;74.82;102530.59;5112626;28;20418;-82
2023/10/16 00:02:59;;;;;;;0.10;0.10;;;;;;;10.09;74.60;102524.41;5110243;28;20028;-82
2023/10/16 00:05:29;;;;;;;0.30;0.30;;;;;;;10.08;74.42;102527.94;5110887;28;20051;-82
2023/10/16 00:07:56;;;;;;;0.10;0.10;;;;;;;10.04;74.57;102521.72;5110043;28;20032;-82
2023/10/16 00:10:26;;;;;;;0.10;0.10;;;;;;;10.04;74.33;102525.28;5110259;28;20028;-80
2023/10/16 00:12:52;;;;;;;0.10;0.10;;;;;;;10.06;74.26;102519.97;5100201;28;20032;-81
2023/10/16 00:15:18;;;;;;;0.10;0.10;;;;;;;10.06;74.28;102519.97;5111350;28;20146;-83
2023/10/16 00:17:44;;;;;;;0.10;0.10;;;;;;;10.04;74.38;102525.28;5106303;28;20380;-82
2023/10/16 00:20:14;;;;;;;0.10;0.10;;;;;;;10.03;74.47;102526.13;5111943;28;20042;-82
2023/10/16 00:22:43;;;;;;;0.10;0.10;;;;;;;10.06;74.34;102529.72;5112148;28;20046;-82
2023/10/16 00:25:10;;;;;;;0.20;0.20;;;;;;;10.06;74.00;102521.75;5110180;28;20043;-79
2023/10/16 00:27:38;;;;;;;0.10;0.10;;;;;;;10.05;73.90;102523.50;5111147;28;20023;-82
2023/10/16 00:30:08;;;;;;;0.40;0.40;;;;;;;10.07;73.80;102526.16;5104043;28;20474;-82
2023/10/16 00:32:37;;;;;;;0.10;0.10;;;;;;;10.08;73.82;102527.94;5101571;28;20032;-82
2023/10/16 00:35:04;;;;;;;0.30;0.30;;;;;;;10.11;73.71;102528.84;5093080;28;20024;-82
2023/10/16 00:37:32;;;;;;;0.10;0.10;;;;;;;10.11;73.87;102523.56;5096957;28;20137;-82
2023/10/16 00:39:58;;;;;;;0.10;0.10;;;;;;;10.16;73.66;102531.56;5096711;28;20024;-82
2023/10/16 00:42:24;;;;;;;0.10;0.10;;;;;;;10.15;73.71;102530.66;5096353;28;20051;-82
2023/10/16 00:44:58;;;;;;;0.10;0.10;;;;;;;10.19;73.73;102536.84;5097111;28;20461;-82
2023/10/16 00:47:24;;;;;;;0.10;0.10;;;;;;;10.16;73.61;102527.13;5096327;28;20036;-81
2023/10/16 00:49:51;;;;;;;0.13;0.13;;;;;;;10.18;73.76;102525.38;5097785;28;20054;-82
2023/10/16 00:52:18;;;;;;;0.10;0.10;;;;;;;10.22;73.84;102526.31;5097163;28;20032;-82
2023/10/16 00:54:46;;;;;;;0.10;0.10;;;;;;;10.20;73.98;102517.44;5095365;28;20028;-80
2023/10/16 00:57:13;;;;;;;0.10;0.10;;;;;;;10.19;73.65;102507.72;5095362;28;20039;-82
2023/10/16 00:59:41;;;;;;;0.10;0.10;;;;;;;10.14;74.01;102505.06;5095709;28;20035;-82
2023/10/16 01:02:12;;;;;;;0.10;0.10;;;;;;;10.09;73.68;102500.59;5096550;28;20024;-81
2023/10/16 01:04:40;;;;;;;0.10;0.10;;;;;;;10.03;73.57;102499.66;5093603;28;20031;-82
2023/10/16 01:07:08;;;;;;;0.10;0.10;;;;;;;9.98;73.40;102501.38;5096242;28;20028;-82
2023/10/16 01:09:36;;;;;;;0.45;0.45;;;;;;;9.93;73.46;102497.81;5095771;28;20028;-81
2023/10/16 01:12:06;;;;;;;0.65;0.65;;;;;;;9.90;73.57;102503.06;5076918;28;20514;-81
2023/10/16 01:14:35;;;;;;;0.20;0.20;;;;;;;9.87;73.63;102497.75;5096236;28;20067;-82
2023/10/16 01:17:02;;;;;;;0.10;0.10;;;;;;;9.81;73.68;102495.91;5092555;28;20107;-82
2023/10/16 01:19:29;;;;;;;0.10;0.10;;;;;;;9.77;73.60;102506.44;5095779;28;20042;-81
2023/10/16 01:21:58;;;;;;;0.20;0.20;;;;;;;9.71;73.31;102502.88;5095916;28;20028;-83
2023/10/16 01:24:26;;;;;;;0.17;0.17;;;;;;;9.67;73.51;102495.78;5095700;28;20027;-82
2023/10/16 01:26:54;;;;;;;0.10;0.10;;;;;;;9.64;73.79;102495.72;5095171;28;20081;-82
2023/10/16 01:29:20;;;;;;;0.20;0.20;;;;;;;9.63;73.96;102504.56;5095630;28;20028;-81
2023/10/16 01:31:52;;;;;;;0.20;0.20;;;;;;;9.62;73.95;102497.50;5096055;28;20017;-81
2023/10/16 01:34:22;;;;;;;0.20;0.20;;;;;;;9.63;73.65;102503.66;5095724;28;20115;-81
2023/10/16 01:36:51;;;;;;;0.10;0.10;;;;;;;9.60;73.83;102487.78;5089919;28;20059;-82
2023/10/16 01:39:49;;;;;;;0.10;0.10;;;;;;;9.59;73.84;102499.22;5093288;28;20111;-82
2023/10/16 01:42:11;;;;;;;0.10;0.10;;;;;;;9.58;73.94;102493.03;5088711;28;20089;-82
2023/10/16 01:44:39;;;;;;;0.10;0.10;;;;;;;9.57;74.10;102499.22;5091751;28;20024;-82
2023/10/16 01:47:13;;;;;;;0.17;0.17;;;;;;;9.56;73.86;102497.44;5095355;28;20506;-82
2023/10/16 01:49:40;;;;;;;0.30;0.30;;;;;;;9.57;74.12;102487.72;5095367;28;20020;-83
2023/10/16 01:52:10;;;;;;;0.17;0.17;;;;;;;9.60;73.90;102491.28;5096053;28;20023;-83
2023/10/16 01:54:40;;;;;;;0.10;0.10;;;;;;;9.61;74.26;102487.78;5094665;28;20032;-81
2023/10/16 01:57:10;;;;;;;0.10;0.10;;;;;;;9.64;74.12;102490.44;5097752;28;20032;-81
2023/10/16 01:59:40;;;;;;;0.20;0.20;;;;;;;9.64;74.14;102495.72;5094618;28;20024;-83
2023/10/16 02:02:09;;;;;;;0.10;0.10;;;;;;;9.64;74.23;102481.63;5095168;28;20032;-83
2023/10/16 02:04:36;;;;;;;0.10;0.10;;;;;;;9.64;74.14;102487.78;5093974;28;20028;-83
2023/10/16 02:07:02;;;;;;;0.10;0.10;;;;;;;9.63;74.39;102483.41;5095603;28;20229;-83
2023/10/16 02:09:31;;;;;;;0.10;0.10;;;;;;;9.64;74.09;102479.84;5095361;28;20656;-83
2023/10/16 02:11:59;;;;;;;0.13;0.13;;;;;;;9.66;73.75;102477.25;5095781;28;20032;-83
2023/10/16 02:14:26;;;;;;;0.10;0.10;;;;;;;9.61;74.18;102477.19;5095659;28;20497;-83
2023/10/16 02:16:52;;;;;;;0.30;0.30;;;;;;;9.61;74.18;102479.84;5093048;28;20102;-83
2023/10/16 02:19:18;;;;;;;0.15;0.15;;;;;;;9.62;74.05;102471.03;5090195;28;20177;-83
2023/10/16 02:21:45;;;;;;;0.85;0.82;;;;;;;9.63;74.29;102475.47;5092920;28;20036;-83
2023/10/16 02:24:11;;;;;;;0.35;0.35;;;;;;;9.64;74.35;102477.22;5095825;28;20024;-83
2023/10/16 02:26:55;;;;;;;0.17;0.17;;;;;;;9.66;74.24;102475.47;5094854;28;20066;-83
2023/10/16 02:29:22;;;;;;;0.10;0.10;;;;;;;9.69;74.16;102471.97;5095434;28;20032;-83
2023/10/16 02:31:50;;;;;;;0.10;0.10;;;;;;;9.66;74.28;102467.53;5095363;28;20027;-83
2023/10/16 02:34:22;;;;;;;0.30;0.30;;;;;;;9.66;74.28;102470.19;5095425;28;20027;-83
2023/10/16 02:36:50;;;;;;;0.20;0.20;;;;;;;9.64;74.18;102463.97;5096073;28;20031;-80
2023/10/16 02:39:35;;;;;;;0.10;0.10;;;;;;;9.64;74.33;102469.28;5113103;28;20275;-80
2023/10/16 02:42:05;;;;;;;0.17;0.17;;;;;;;9.66;74.12;102456.94;5097734;28;20024;-83
2023/10/16 02:44:33;;;;;;;0.15;0.15;;;;;;;9.65;74.49;102456.94;5096688;28;20039;-83
2023/10/16 02:46:59;;;;;;;0.10;0.10;;;;;;;9.67;74.39;102464.03;5091562;28;20448;-82
2023/10/16 02:49:25;;;;;;;0.15;0.15;;;;;;;9.67;74.25;102464.03;5093570;28;20407;-82
2023/10/16 02:51:52;;;;;;;0.10;0.10;;;;;;;9.68;74.51;102459.59;5096171;28;20091;-82
2023/10/16 02:54:18;;;;;;;0.20;0.20;;;;;;;9.69;74.75;102451.72;5095706;28;20055;-82
2023/10/16 02:56:45;;;;;;;0.20;0.20;;;;;;;9.64;74.72;102457.81;5095033;28;20024;-83
2023/10/16 02:59:11;;;;;;;0.10;0.10;;;;;;;9.61;74.65;102456.03;5094623;28;20036;-81
2023/10/16 03:01:38;;;;;;;0.40;0.40;;;;;;;9.61;74.28;102458.66;5094869;28;20028;-81
2023/10/16 03:04:06;;;;;;;0.10;0.10;;;;;;;9.57;74.43;102455.97;5094853;28;20383;-83
2023/10/16 03:06:39;;;;;;;0.10;0.10;;;;;;;9.54;74.55;102448.88;5081533;28;20607;-82
2023/10/16 03:09:36;;;;;;;0.13;0.13;;;;;;;9.51;74.63;102462.09;5094192;28;20453;-81
2023/10/16 03:12:08;;;;;;;0.20;0.20;;;;;;;9.48;74.79;102448.81;5081858;28;20539;-81
2023/10/16 03:14:45;;;;;;;;;;;;;;;9.56;74.31;102444.50;5091870;28;20032;-82
2023/10/16 03:17:18;;;;;;;0.20;0.20;;;;;;;9.40;74.61;102448.75;5090610;28;19912;-83
2023/10/16 03:19:48;;;;;;;0.10;0.10;;;;;;;9.37;74.56;102448.69;5090877;28;20032;-81
2023/10/16 03:22:15;;;;;;;0.10;0.10;;;;;;;9.34;74.74;102444.28;5093844;28;20036;-82
2023/10/16 03:24:43;;;;;;;0.10;0.10;;;;;;;9.32;74.57;102446.03;5094704;28;20028;-81
2023/10/16 03:27:09;;;;;;;0.10;0.10;;;;;;;9.30;74.48;102453.06;5095185;28;20031;-83
2023/10/16 03:29:35;;;;;;;0.10;0.10;;;;;;;9.28;74.27;102444.19;5095206;28;20105;-83
2023/10/16 03:32:02;;;;;;;0.20;0.20;;;;;;;9.27;74.37;102450.38;5095605;28;20100;-83
2023/10/16 03:34:31;;;;;;;0.13;0.13;;;;;;;9.27;74.34;102455.69;5096011;28;20445;-82
2023/10/16 03:37:03;;;;;;;0.10;0.10;;;;;;;9.27;74.35;102458.31;5095365;28;20032;-82
2023/10/16 03:39:31;;;;;;;0.20;0.20;;;;;;;9.31;74.34;102454.84;5095427;28;20058;-83
2023/10/16 03:41:57;;;;;;;0.10;0.10;;;;;;;9.34;74.71;102460.13;5095262;28;20020;-82
2023/10/16 03:44:26;;;;;;;0.17;0.17;;;;;;;9.39;74.72;102453.16;5094975;28;20024;-82
2023/10/16 03:46:55;;;;;;;0.20;0.20;;;;;;;9.45;75.05;102462.03;5093725;28;20112;-81
2023/10/16 03:49:21;;;;;;;0.10;0.10;;;;;;;9.51;74.80;102459.47;5094184;28;20031;-83
2023/10/16 03:51:50;;;;;;;0.10;0.10;;;;;;;9.61;74.87;102448.09;5094684;28;20118;-83
2023/10/16 03:54:23;;;;;;;0.15;0.15;;;;;;;9.70;74.61;102455.22;5094291;28;20024;-82
2023/10/16 03:56:49;;;;;;;0.10;0.10;;;;;;;9.76;74.58;102459.69;5093738;28;20027;-83
2023/10/16 03:59:15;;;;;;;0.10;0.10;;;;;;;9.80;74.75;102448.25;5092186;28;20063;-82
2023/10/16 04:01:44;;;;;;;0.17;0.17;;;;;;;9.80;74.99;102446.50;5092909;28;20028;-83
2023/10/16 04:04:13;;;;;;;0.15;0.15;;;;;;;9.83;75.22;102450.91;5091398;28;20083;-83
2023/10/16 04:06:39;;;;;;;0.17;0.17;;;;;;;9.81;75.46;102447.41;5093526;28;20031;-82
2023/10/16 04:09:06;;;;;;;0.20;0.20;;;;;;;9.82;75.07;102449.13;5095882;28;20028;-82
2023/10/16 04:11:32;;;;;;;0.10;0.10;;;;;;;9.81;75.17;102453.56;5095859;28;20028;-82
2023/10/16 04:13:59;;;;;;;0.10;0.10;;;;;;;9.82;75.33;102446.50;5096973;28;20032;-82
2023/10/16 04:22:07;;;;;;;0.10;0.10;;;;;;;9.82;75.09;102447.41;5062665;28;20924;-83
2023/10/16 04:24:40;;;;;;;0.10;0.10;;;;;;;9.83;75.27;102435.03;5035736;28;20026;-83
2023/10/16 04:29:49;;;;;;;0.10;0.10;;;;;;;9.80;75.19;102432.38;5115480;27;1219901;-83
2023/10/16 04:32:20;;;;;;;;;;;;;;;9.94;74.60;102443.97;5135004;27;20039;-81
2023/10/16 04:34:53;;;;;;;0.10;0.10;;;;;;;9.82;75.07;102433.25;5136781;27;19932;-84
2023/10/16 04:37:29;;;;;;;0.90;0.90;;;;;;;9.83;75.47;102427.09;5132384;27;20023;-84
2023/10/16 04:43:12;;;;;;;0.10;0.10;;;;;;;9.83;75.01;102432.38;5100368;27;20405;-81
2023/10/16 04:45:24;;;;;;;0.10;0.10;;;;;;;9.82;75.04;102426.22;5084885;28;20414;-84
2023/10/16 04:50:40;;;;;;;0.20;0.20;;;;;;;9.92;74.83;102421.91;5097487;27;1223591;-81
2023/10/16 04:53:12;;;;;;;0.10;0.10;;;;;;;9.92;74.99;102416.59;5130862;28;20027;-83
2023/10/16 05:19:45;;;;;;;0.10;0.10;;;;;;;10.03;74.98;102404.31;5066646;28;20037;-83
2023/10/16 06:14:47;;;;;;;0.20;0.20;;;;;;;10.46;75.36;102408.16;5085526;28;20060;-83
2023/10/16 06:17:15;;;;;;;0.20;0.20;;;;;;;10.47;75.62;102409.94;5069530;28;20033;-83
2023/10/16 06:19:43;;;;;;;0.10;0.10;;;;;;;10.49;75.66;102402.88;5062050;28;20029;-83
2023/10/16 06:22:11;;;;;;;0.10;0.10;;;;;;;10.53;75.61;102402.03;5058455;28;20076;-83
2023/10/16 06:24:41;;;;;;;0.10;0.10;;;;;;;10.54;75.35;102409.06;5048255;28;20040;-83
2023/10/16 06:27:10;;;;;;;0.20;0.20;;;;;;;10.55;75.45;102404.69;5041589;28;20053;-81
2023/10/16 06:29:41;;;;;;;0.10;0.10;;;;;;;10.56;75.22;102409.97;5036713;28;20022;-83
2023/10/16 06:32:25;;;;;;;0.10;0.10;;;;;;;10.58;75.56;102404.69;5059560;28;20071;-86
2023/10/16 06:37:31;;;;;;;0.10;0.10;;;;;;;10.60;75.48;102421.47;5102159;27;20409;-83
2023/10/16 06:40:00;;;;;;;0.20;0.20;;;;;;;10.61;75.61;102421.47;5090739;28;20036;-82
2023/10/16 06:42:27;;;;;;;0.10;0.10;;;;;;;10.62;75.39;102425.91;5090991;28;20070;-82
2023/10/16 06:44:54;;;;;;;0.10;0.10;;;;;;;10.63;75.26;102426.78;5086656;28;20044;-83
2023/10/16 06:47:34;;;;;;;0.20;0.20;;;;;;;10.62;75.38;102428.56;5083034;28;20066;-82
2023/10/16 06:50:01;;;;;;;0.10;0.10;;;;;;;10.65;75.12;102425.94;5089493;28;20506;-82
2023/10/16 06:52:27;;;;;;;0.38;0.38;;;;;;;10.62;75.46;102425.03;5090761;28;20043;-83
2023/10/16 06:54:53;;;;;;;0.10;0.10;;;;;;;10.64;75.22;102424.16;5091056;28;20077;-83
2023/10/16 06:57:19;;;;;;;0.20;0.20;;;;;;;10.67;75.22;102424.16;5089661;28;20036;-85
2023/10/16 06:59:45;;;;;;;0.10;0.10;;;;;;;10.73;75.34;102422.41;5088859;28;20039;-81
2023/10/16 07:02:15;;;;;;;0.10;0.10;;;;;;;10.79;75.20;102420.72;5089517;28;20028;-82
2023/10/16 07:04:44;;;;;;;0.15;0.15;;;;;;;10.84;75.72;102426.00;5090099;28;20187;-80
2023/10/16 07:07:14;;;;;;;0.10;0.10;;;;;;;10.91;75.50;102429.59;5090731;28;20107;-81
2023/10/16 07:09:47;;;;;;;0.10;0.10;;;;;;;10.94;75.58;102435.78;5090560;28;20029;-80
2023/10/16 07:12:18;;;;;;;0.13;0.13;;;;;;;11.00;75.59;102433.16;5083845;28;20036;-80
2023/10/16 07:14:55;;;;;;;0.22;0.22;;;;;;;11.04;75.79;102430.50;5089502;28;20028;-80
2023/10/16 07:17:24;;;;;;;0.20;0.20;;;;;;;11.06;75.38;102439.38;5087496;28;20040;-80
2023/10/16 07:19:51;;;;;;;0.20;0.20;;;;;;;11.07;75.54;102435.84;5086949;28;20403;-82
2023/10/16 07:22:22;;;;;;;0.10;0.10;;;;;;;11.09;75.85;102423.44;5091701;28;20086;-80
2023/10/16 07:24:48;;;;;;;0.10;0.10;;;;;;;11.10;75.55;102426.13;5084088;28;20060;-80
2023/10/16 07:27:14;;;;;;;0.10;0.10;;;;;;;11.13;75.88;102423.47;5079336;28;20033;-80
2023/10/16 07:29:41;;;;;;;0.10;0.10;;;;;;;11.18;75.98;102420.84;5088843;28;20528;-81
2023/10/16 07:32:08;;;;;;;0.10;0.10;;;;;;;11.23;75.86;102420.88;5087829;28;20032;-80
2023/10/16 07:34:36;;;;;;;0.20;0.20;;;;;;;11.26;75.63;102421.72;5087358;28;20089;-80
2023/10/16 07:37:07;;;;;;;0.20;0.20;;;;;;;11.31;76.00;102422.66;5089160;28;20036;-81
2023/10/16 07:39:36;;;;;;;0.10;0.10;;;;;;;11.35;76.01;102423.50;5078946;28;20395;-81
2023/10/16 07:42:02;;;;;;;0.10;0.10;;;;;;;11.42;75.46;102424.44;5096451;28;20025;-81
2023/10/16 07:44:29;;;;;;;0.10;0.10;;;;;;;11.48;75.57;102421.78;5089900;28;20399;-80
2023/10/16 07:46:55;;;;;;;0.20;0.20;;;;;;;11.51;75.17;102426.22;5082571;28;20028;-81
2023/10/16 07:49:25;;;;;;;0.10;0.10;;;;;;;11.57;75.79;102434.19;5065370;28;20089;-82
2023/10/16 07:51:52;;;;;;;0.10;0.10;;;;;;;11.68;75.67;102427.13;5076440;28;20513;-80
2023/10/16 07:54:20;;;;;;;0.10;0.10;;;;;;;11.76;75.43;102436.00;5064906;28;20605;-80
2023/10/16 07:56:50;;;;;;;0.10;0.10;;;;;;;11.87;75.70;102432.44;5075955;28;20403;-79
2023/10/16 07:59:20;;;;;;;0.10;0.10;;;;;;;11.96;75.88;102433.38;5075159;28;20052;-81
2023/10/16 08:01:53;;;;;;;0.10;0.10;;;;;;;12.07;75.84;102428.03;5076402;28;20136;-82
2023/10/16 08:07:16;;;;;;;0.17;0.17;;;;;;;12.18;75.20;102419.19;5060466;28;20392;-80
2023/10/16 08:12:19;;;;;;;0.10;0.10;;;;;;;12.27;75.29;102427.13;5092941;27;20592;-81
2023/10/16 08:14:46;;;;;;;0.10;0.10;;;;;;;12.28;74.65;102428.91;5080629;28;20506;-83
2023/10/16 08:17:17;;;;;;;0.73;0.73;;;;;;;12.33;74.55;102432.44;5082369;28;20096;-83
2023/10/16 08:19:44;;;;;;;0.10;0.10;;;;;;;12.35;74.50;102429.75;5085467;28;20028;-83
2023/10/16 08:22:13;;;;;;;0.10;0.10;;;;;;;12.40;74.25;102430.63;5072747;28;20447;-82
2023/10/16 08:24:43;;;;;;;0.10;0.10;;;;;;;12.42;74.39;102428.88;5080779;28;20031;-81
2023/10/16 08:27:22;;;;;;;0.10;0.10;;;;;;;12.48;74.42;102426.19;5072858;28;20028;-83
2023/10/16 08:29:58;;;;;;;1.85;0.65;;;;;;;12.45;74.54;102427.09;5085961;28;20024;-83
2023/10/16 08:32:43;;;;;;;0.10;0.10;;;;;;;12.49;74.90;102422.66;5086592;28;20097;-82
2023/10/16 08:35:10;;;;;;;0.10;0.10;;;;;;;12.53;74.79;102421.75;5071398;28;20165;-83
2023/10/16 08:37:41;;;;;;;0.10;0.10;;;;;;;12.62;74.90;102428.81;5070749;28;20033;-83
2023/10/16 08:40:19;;;;;;;0.10;0.10;;;;;;;12.70;74.36;102428.81;5070534;28;20025;-82
2023/10/16 08:42:50;;;;;;;0.20;0.20;;;;;;;12.79;74.43;102426.09;5072044;28;20029;-83
2023/10/16 08:45:24;;;;;;;0.20;0.20;;;;;;;12.89;74.86;102425.16;5095584;28;20084;-80
2023/10/16 08:47:52;;;;;;;0.10;0.10;;;;;;;12.97;74.49;102427.78;5091214;28;20040;-82
2023/10/16 08:50:25;;;;;;;0.10;0.10;;;;;;;13.05;74.89;102428.63;5085538;28;20103;-82
2023/10/16 08:52:52;;;;;;;0.10;0.10;;;;;;;13.12;74.60;102421.50;5072574;28;20099;-82
2023/10/16 08:55:18;;;;;;;0.10;0.10;;;;;;;13.17;74.56;102419.72;5071938;28;20381;-83
2023/10/16 08:57:48;;;;;;;1.30;1.08;;;;;;;13.25;74.38;102425.88;5074497;28;20029;-83
2023/10/16 09:00:19;;;;;;;0.10;0.10;;;;;;;13.33;74.49;102422.28;5072265;28;20033;-83
2023/10/16 09:02:50;;;;;;;0.20;0.20;;;;;;;13.40;74.17;102424.03;5073596;28;20526;-83
2023/10/16 09:05:16;;;;;;;0.15;0.15;;;;;;;13.43;73.95;102413.38;5070720;28;20029;-82
2023/10/16 09:07:42;;;;;;;0.10;0.10;;;;;;;13.45;73.60;102418.69;5076628;28;20541;-83
2023/10/16 09:10:10;;;;;;;0.10;0.10;;;;;;;13.48;73.51;102422.19;5072779;28;20040;-83
2023/10/16 09:12:44;;;;;;;0.10;0.10;;;;;;;13.53;73.40;102419.50;5076767;28;20146;-83
2023/10/16 09:15:15;;;;;;;2.10;1.65;;;;;;;13.59;73.47;102425.69;5079453;28;20028;-82
2023/10/16 09:17:41;;;;;;;0.10;0.10;;;;;;;13.62;73.02;102421.22;5078691;28;20028;-83
2023/10/16 09:20:13;;;;;;;0.10;0.10;;;;;;;13.65;72.54;102421.22;5074471;28;20453;-83
2023/10/16 09:22:45;;;;;;;;;;;;;;;13.81;72.01;102414.88;5063343;28;20040;-81
2023/10/16 09:25:15;;;;;;;0.10;0.10;;;;;;;13.68;71.88;102416.75;5061458;28;19919;-82
2023/10/16 09:27:42;;;;;;;0.10;0.10;;;;;;;13.65;70.40;102413.22;5061669;28;20638;-82
2023/10/16 09:30:14;;;;;;;0.10;0.10;;;;;;;13.68;70.28;102418.50;5064732;28;20528;-82
2023/10/16 09:32:41;;;;;;;0.10;0.10;;;;;;;13.69;69.72;102414.97;5059554;28;20037;-82
2023/10/16 09:35:15;;;;;;;0.10;0.10;;;;;;;13.78;71.06;102409.53;5056424;28;20307;-82
2023/10/16 09:37:47;;;;;;;0.10;0.10;;;;;;;13.79;69.89;102413.13;5056289;28;20029;-82
2023/10/16 09:40:45;;;;;;;;;;;;;;;13.97;69.01;102412.06;5076993;28;20020;-82
2023/10/16 09:43:18;;;;;;;0.10;0.10;;;;;;;13.95;69.80;102420.06;5058766;28;20000;-82
2023/10/16 09:45:47;;;;;;;0.15;0.15;;;;;;;13.99;68.24;102412.94;5061081;28;20093;-81
2023/10/16 09:48:19;;;;;;;0.10;0.10;;;;;;;14.05;68.04;102407.53;5074184;28;20034;-81
2023/10/16 09:50:47;;;;;;;0.10;0.10;;;;;;;14.12;68.35;102411.94;5074209;28;20107;-81
2023/10/16 09:53:14;;;;;;;0.10;0.10;;;;;;;14.21;66.27;102409.16;5068002;28;20082;-81
2023/10/16 09:55:48;;;;;;;0.10;0.10;;;;;;;14.32;66.75;102417.06;5069639;28;20577;-81
2023/10/16 09:58:14;;;;;;;0.10;0.10;;;;;;;14.38;67.03;102411.66;5055283;28;20033;-81
2023/10/16 10:00:46;;;;;;;0.10;0.10;;;;;;;14.48;67.31;102412.44;5068900;28;20036;-83
2023/10/16 10:03:14;;;;;;;0.20;0.20;;;;;;;14.53;67.99;102410.59;5060449;28;20132;-83
2023/10/16 10:05:55;;;;;;;0.10;0.10;;;;;;;14.60;66.93;102405.19;5057097;28;20029;-82
2023/10/16 10:08:28;;;;;;;0.10;0.10;;;;;;;14.66;67.56;102400.69;5058072;28;20037;-83
2023/10/16 10:14:09;;;;;;;0.10;0.10;;;;;;;14.80;66.75;102403.19;5060346;28;20518;-81
2023/10/16 10:16:37;;;;;;;0.10;0.10;;;;;;;14.86;67.88;102397.75;5062348;28;20024;-81
2023/10/16 10:19:10;;;;;;;0.10;0.10;;;;;;;14.92;66.36;102404.81;5067860;28;20040;-81
2023/10/16 10:21:47;;;;;;;0.10;0.10;;;;;;;15.00;65.80;102399.38;5054471;28;20108;-81
2023/10/16 10:24:15;;;;;;;0.10;0.10;;;;;;;15.07;66.68;102401.06;5059546;28;20036;-82
2023/10/16 10:26:48;;;;;;;0.10;0.10;;;;;;;15.19;64.97;102394.69;5057285;28;20040;-81
2023/10/16 10:29:16;;;;;;;0.10;0.10;;;;;;;15.25;65.04;102393.69;5073920;28;20036;-81
2023/10/16 10:31:44;;;;;;;0.10;0.10;;;;;;;15.31;65.22;102385.59;5065702;28;20028;-82
2023/10/16 10:34:27;;;;;;;0.10;0.10;;;;;;;15.41;62.88;102389.88;5060618;28;20033;-82
2023/10/16 10:36:54;;;;;;;0.10;0.10;;;;;;;15.45;65.83;102394.28;5054779;28;20079;-82
2023/10/16 10:42:03;;;;;;;0.10;0.10;;;;;;;15.57;65.59;102390.53;4971231;27;4880603;-81
2023/10/16 10:44:31;;;;;;;0.10;0.10;;;;;;;15.68;67.00;102393.03;5130123;28;20035;-82
2023/10/16 10:47:00;;;;;;;0.10;0.10;;;;;;;15.75;66.07;102397.38;5127172;28;20420;-82
2023/10/16 10:49:34;;;;;;;0.10;0.10;;;;;;;15.86;65.36;102397.19;5123598;28;20020;-81
2023/10/16 10:52:01;;;;;;;0.10;0.10;;;;;;;15.92;65.10;102401.56;5110073;28;20548;-80
2023/10/16 10:54:28;;;;;;;0.10;0.10;;;;;;;15.92;62.01;102396.22;5108997;28;20398;-82
2023/10/16 10:56:59;;;;;;;0.10;0.10;;;;;;;15.97;63.69;102397.00;5104529;28;20495;-82
2023/10/16 10:59:41;;;;;;;0.15;0.15;;;;;;;15.99;61.32;102393.41;5092207;28;20031;-82
2023/10/16 11:04:58;;;;;;;0.10;0.10;;;;;;;15.79;63.79;102382.16;5105677;27;20398;-83
2023/10/16 11:07:39;;;;;;;0.10;0.10;;;;;;;15.96;64.11;102387.22;5074243;28;20104;-81
2023/10/16 11:10:06;;;;;;;0.10;0.10;;;;;;;15.97;66.08;102386.31;5068478;28;20055;-81
2023/10/16 11:12:33;;;;;;;0.20;0.20;;;;;;;15.90;62.70;102384.66;5092880;28;20300;-83
2023/10/16 11:15:02;;;;;;;0.10;0.10;;;;;;;15.98;64.95;102388.09;5072324;28;20037;-82
2023/10/16 11:17:30;;;;;;;0.10;0.10;;;;;;;16.06;65.62;102380.78;5057404;28;20033;-82
2023/10/16 11:19:57;;;;;;;0.10;0.10;;;;;;;16.12;65.17;102378.00;5061396;28;20064;-82
2023/10/16 11:22:27;;;;;;;0.10;0.10;;;;;;;16.17;64.61;102378.84;5064799;28;20033;-82
2023/10/16 11:24:54;;;;;;;0.10;0.10;;;;;;;16.17;62.87;102381.50;5065927;28;20033;-82
2023/10/16 11:27:21;;;;;;;0.10;0.10;;;;;;;16.23;64.34;102379.63;5064500;28;20033;-81
2023/10/16 11:29:48;;;;;;;0.10;0.10;;;;;;;16.22;62.04;102377.84;5051485;28;20037;-81
2023/10/16 11:32:15;;;;;;;0.10;0.10;;;;;;;16.22;62.72;102372.50;5068162;28;20025;-83
2023/10/16 11:34:50;;;;;;;0.10;0.10;;;;;;;16.26;62.53;102379.53;5057190;28;20067;-83
2023/10/16 11:37:25;;;;;;;0.10;0.10;;;;;;;16.20;62.46;102368.97;5058713;28;20028;-82
2023/10/16 11:39:54;;;;;;;0.10;0.10;;;;;;;16.20;61.41;102363.63;5059618;28;20044;-82
2023/10/16 11:42:20;;;;;;;0.10;0.10;;;;;;;16.27;63.55;102363.47;5077187;28;20474;-82
2023/10/16 11:44:51;;;;;;;0.10;0.10;;;;;;;16.30;61.19;102362.53;5063532;28;20029;-82
2023/10/16 11:47:18;;;;;;;0.10;0.10;;;;;;;16.34;62.54;102353.53;5057221;28;20057;-82
2023/10/16 11:49:53;;;;;;;0.10;0.10;;;;;;;16.40;60.97;102350.75;5054329;28;20068;-82
2023/10/16 11:52:21;;;;;;;0.10;0.10;;;;;;;16.33;60.89;102338.41;5067370;28;20028;-82
2023/10/16 11:54:52;;;;;;;0.10;0.10;;;;;;;16.30;60.24;102344.69;5079732;28;20039;-82
2023/10/16 11:57:18;;;;;;;0.10;0.10;;;;;;;16.29;61.53;102339.38;5064190;28;20470;-82
2023/10/16 11:59:44;;;;;;;0.10;0.10;;;;;;;16.27;61.61;102341.19;5061423;28;20498;-82
2023/10/16 12:02:11;;;;;;;0.10;0.10;;;;;;;16.25;58.65;102329.63;5058662;28;20025;-82
2023/10/16 12:04:40;;;;;;;0.10;0.10;;;;;;;16.28;59.43;102332.28;5061514;28;20398;-83
2023/10/16 12:07:08;;;;;;;0.10;0.10;;;;;;;16.29;59.88;102328.69;5064658;28;20033;-83
2023/10/16 12:09:36;;;;;;;0.10;0.10;;;;;;;16.31;59.89;102326.84;5072370;28;20028;-86
2023/10/16 12:12:06;;;;;;;0.10;0.10;;;;;;;16.33;59.28;102327.69;5068996;28;20025;-84
2023/10/16 12:14:37;;;;;;;0.10;0.10;;;;;;;16.36;59.38;102322.28;5068884;28;20022;-84
2023/10/16 12:17:06;;;;;;;0.10;0.10;;;;;;;16.38;59.10;102320.47;5045994;28;20034;-83
2023/10/16 12:19:34;;;;;;;0.10;0.10;;;;;;;16.45;59.46;102329.25;5046349;28;20025;-83
2023/10/16 12:22:01;;;;;;;0.10;0.10;;;;;;;16.50;58.97;102320.19;5051723;28;20025;-83
2023/10/16 12:24:27;;;;;;;0.10;0.10;;;;;;;16.55;57.65;102322.78;5059487;28;20020;-84
2023/10/16 12:26:53;;;;;;;0.10;0.10;;;;;;;16.68;58.84;102318.03;5052554;28;20033;-84
2023/10/16 12:29:20;;;;;;;0.08;0.08;;;;;;;16.72;57.55;102308.16;5051405;28;20052;-84
2023/10/16 12:31:48;;;;;;;0.10;0.10;;;;;;;16.79;60.52;102310.66;5048808;28;20033;-84
2023/10/16 12:34:16;;;;;;;0.10;0.10;;;;;;;16.81;58.04;102299.94;5045162;28;20025;-85
2023/10/16 12:36:43;;;;;;;0.20;0.20;;;;;;;16.80;54.02;102304.38;5040890;28;20033;-84
2023/10/16 12:39:16;;;;;;;0.10;0.10;;;;;;;16.89;55.19;102305.09;5056459;28;20021;-84
2023/10/16 12:41:42;;;;;;;0.55;0.55;;;;;;;16.87;56.22;102301.56;5042066;28;20104;-84
2023/10/16 12:44:09;;;;;;;0.10;0.10;;;;;;;16.79;57.14;102294.59;5042338;28;20017;-84
2023/10/16 12:46:37;;;;;;;0.10;0.10;;;;;;;16.80;56.63;102306.19;5037018;28;20045;-84
2023/10/16 12:49:07;;;;;;;0.10;0.10;;;;;;;16.84;56.64;102301.66;5035252;28;20079;-84
2023/10/16 12:51:34;;;;;;;0.10;0.10;;;;;;;16.92;58.10;102294.34;5042124;28;20044;-84
2023/10/16 12:54:03;;;;;;;0.40;0.40;;;;;;;16.97;57.05;102289.75;5052589;28;20029;-84
2023/10/16 12:56:31;;;;;;;0.10;0.10;;;;;;;17.00;56.18;102292.38;5050473;28;20029;-84
2023/10/16 12:58:58;;;;;;;0.10;0.10;;;;;;;17.00;54.24;102286.13;5040581;28;20571;-84
2023/10/16 13:01:25;;;;;;;0.10;0.10;;;;;;;17.04;54.82;102290.50;5046287;28;20086;-83
2023/10/16 13:03:51;;;;;;;0.10;0.10;;;;;;;17.02;55.89;102290.50;5050235;28;20556;-84
2023/10/16 13:06:17;;;;;;;0.10;0.10;;;;;;;16.96;53.55;102294.25;5048537;28;20037;-84
2023/10/16 13:08:43;;;;;;;0.10;0.10;;;;;;;16.94;56.37;102300.53;5048604;28;20025;-84
2023/10/16 13:11:10;;;;;;;0.10;0.10;;;;;;;16.87;56.34;102302.44;5053156;28;20036;-83
2023/10/16 13:13:36;;;;;;;0.10;0.10;;;;;;;16.76;57.10;102296.44;5045534;28;20032;-84
2023/10/16 13:16:04;;;;;;;0.10;0.10;;;;;;;16.64;56.46;102286.91;5031389;28;20033;-83
2023/10/16 13:18:30;;;;;;;0.10;0.10;;;;;;;16.44;55.55;102298.06;5057526;28;20020;-83
2023/10/16 13:20:58;;;;;;;0.10;0.10;;;;;;;16.35;57.17;102299.13;5060959;28;20065;-84
2023/10/16 13:23:25;;;;;;;0.40;0.40;;;;;;;16.29;58.08;102294.78;5054602;28;20036;-84
2023/10/16 13:25:56;;;;;;;0.10;0.10;;;;;;;16.24;58.67;102295.81;5053424;28;20025;-84